Baton Rouge, LA (70818)

3:21 AM CDT on August 28, 2014 (GMT -0500)
KLAGREEN3 | Change Station
CLOSE
Current Station
Personal Weather Station
Location: Baton Rouge, LA
Elevation: 62 ft
Nearby Weather Stations

Elev 62 ft 30.53 °N, 91.03 °W | Updated 57 seconds ago

Partly Cloudy
Partly Cloudy
74.4 °F
Feels Like 72 °F
N
0.0
Wind Variable Wind from North
Gusts 0.0 mph

Today
High -- | Low -- °F
--% Chance of Precip.
Yesterday
High -- | Low -- °F
Precip. -- in
6:38 AM 7:31 PM
Waxing Crescent, 7% visible
Pressure 29.98 in
Visibility 9.0 miles
Clouds Clear
Heat Index 72 °F
Dew Point 73 °F
Humidity 95%
Rainfall 0.00 in
Snow Depth Not available.
UV 0 out of 12
Pollen 7.90 out of 12
Ozone Good
PM2.5 Good
Flu Activity Not available.
METAR KBTR 280753Z AUTO 06003KT 9SM CLR 24/23 A2998 RMK AO2 SLP151 T02440233 TSNO

More Conditions Fewer Conditions

Pressure 29.98 in
Visibility 9.0 miles
Clouds Clear
Heat Index 72 °F
Dew Point 73 °F
Humidity 95%
Rainfall 0.00 in
Snow Depth Not available.
UV 0 out of 12
Pollen 7.90 out of 12
Ozone Good
PM2.5 Good
Flu Activity Not available.
METAR KBTR 280753Z AUTO 06003KT 9SM CLR 24/23 A2998 RMK AO2 SLP151 T02440233 TSNO

More Conditions Fewer Conditions

10-Day Weather Forecast

Almanac

Astronomy

Aug. 28, 2014 Rise Set
Actual Time 6:38 AM CDT 7:31 PM CDT
Civil Twilight 6:13 AM CDT 7:56 PM CDT
Nautical Twilight 5:44 AM CDT 8:25 PM CDT
Astronomical Twilight 5:14 AM CDT 8:55 PM CDT
Moon 9:16 AM CDT 9:12 PM CDT
Length of Visible Light 13h 42m
Length of Day
12h 53m
Tomorrow will be 1m 44s shorter.
Waxing Crescent, 7% of the Moon is Illuminated
Today
Waxing Crescent
Sep 2
First Quarter
Sep 8
Full
Sep 15
Last Quarter
Sep 24
New

Today's Extremes

State Highs State Lows

Community

WunderPhotos

Upload Photos

1,747,918 photos uploaded!

Nearby

Air Quality

  Air Quality AQ Index Pollutant
Yesterday Good
PM2.5
Yesterday Good
OZONE
Current Good
PM2.5
Current Good
OZONE
Thursday Good
PM2.5
Thursday Good
OZONE
Friday Good
PM2.5
Friday Good
OZONE

Snow Depth

Station Depth Elevation
No new snow has been reported.

Earthquake Activity

City Distance Mag. Time & Date
No recent earthquake activity has been reported nearby.
Minimum magnitude displayed is 2.5.

Coastal Water Temperatures

Place Temperature
No Stations Reporting

Nearby Weather Stations